createdAt,value
2022-11-15T00:00:40.938Z,26.60
2022-11-15T00:03:28.670Z,24.13
2022-11-15T00:06:14.797Z,25.73
2022-11-15T00:09:01.354Z,24.90
2022-11-15T00:11:47.439Z,25.15
2022-11-15T00:14:33.267Z,24.63
2022-11-15T00:17:19.153Z,23.75
2022-11-15T00:20:05.444Z,24.75
2022-11-15T00:22:51.147Z,24.02
2022-11-15T00:25:36.970Z,25.38
2022-11-15T00:31:12.958Z,23.88
2022-11-15T00:33:58.955Z,24.60
2022-11-15T00:36:44.732Z,23.50
2022-11-15T00:39:30.352Z,24.67
2022-11-15T00:42:16.168Z,23.20
2022-11-15T00:45:02.172Z,22.75
2022-11-15T00:47:48.285Z,23.75
2022-11-15T00:53:19.699Z,22.92
2022-11-15T00:56:05.699Z,23.33
2022-11-15T00:58:51.888Z,22.52
2022-11-15T01:01:37.717Z,23.13
2022-11-15T01:04:23.590Z,22.05
2022-11-15T01:07:09.349Z,23.13
2022-11-15T01:09:55.789Z,22.02
2022-11-15T01:15:27.496Z,22.23
2022-11-15T01:18:22.904Z,20.37
2022-11-15T01:21:15.163Z,21.13
2022-11-15T01:24:00.912Z,20.15
2022-11-15T01:26:46.822Z,20.15
2022-11-15T01:29:32.693Z,18.50
2022-11-15T01:32:18.879Z,19.92
2022-11-15T01:35:05.419Z,19.75
2022-11-15T01:37:51.476Z,19.30
2022-11-15T01:43:29.869Z,21.20
2022-11-15T01:46:36.917Z,19.98
2022-11-15T01:52:15.374Z,20.92
2022-11-15T01:55:07.332Z,20.67
2022-11-15T01:57:58.411Z,20.65
2022-11-15T02:00:44.394Z,17.67
2022-11-15T02:03:39.221Z,18.27
2022-11-15T02:06:25.755Z,19.15
2022-11-15T02:09:12.644Z,20.33
2022-11-15T02:12:00.594Z,18.35
2022-11-15T02:14:53.008Z,18.55
2022-11-15T02:18:19.212Z,19.20
2022-11-15T02:21:16.984Z,19.33
2022-11-15T02:24:28.742Z,19.08
2022-11-15T02:27:45.164Z,18.45
2022-11-15T02:30:48.974Z,20.10
2022-11-15T02:33:53.237Z,17.55
2022-11-15T02:37:01.740Z,18.38
2022-11-15T02:39:58.796Z,17.38
2022-11-15T02:43:12.828Z,17.13
2022-11-15T02:46:45.517Z,18.42
2022-11-15T02:49:35.771Z,15.48
2022-11-15T02:52:24.368Z,15.60
2022-11-15T02:55:40.201Z,16.70
2022-11-15T02:58:36.716Z,16.52
2022-11-15T03:04:14.341Z,17.45
2022-11-15T03:07:08.837Z,18.45
2022-11-15T03:10:06.785Z,18.90
2022-11-15T03:12:56.540Z,20.58
2022-11-15T03:16:06.393Z,20.55
2022-11-15T03:18:57.847Z,20.45
2022-11-15T03:21:45.195Z,18.90
2022-11-15T03:24:34.678Z,19.90
2022-11-15T03:27:24.572Z,20.38
2022-11-15T03:30:12.272Z,21.48
2022-11-15T03:33:01.364Z,19.80
2022-11-15T03:35:49.587Z,19.38
2022-11-15T03:38:36.661Z,20.35
2022-11-15T03:41:29.234Z,20.45
2022-11-15T03:44:21.195Z,20.23
2022-11-15T03:47:12.530Z,19.02
2022-11-15T03:50:03.132Z,19.85
2022-11-15T03:52:50.821Z,19.40
2022-11-15T03:55:36.811Z,19.00
2022-11-15T03:58:22.481Z,18.83
2022-11-15T04:01:08.501Z,19.40
2022-11-15T04:03:54.374Z,19.20
2022-11-15T04:06:40.107Z,18.48
2022-11-15T04:09:25.773Z,20.00
2022-11-15T04:12:11.472Z,19.60
2022-11-15T04:15:09.444Z,18.75
2022-11-15T04:17:57.807Z,19.45
2022-11-15T04:21:01.886Z,18.95
2022-11-15T04:24:06.441Z,18.10
2022-11-15T04:26:52.843Z,16.58
2022-11-15T04:29:39.036Z,16.10
2022-11-15T04:32:25.203Z,16.85
2022-11-15T04:35:11.048Z,15.43
2022-11-15T04:37:57.552Z,15.70
2022-11-15T04:40:43.281Z,16.88
2022-11-15T04:43:29.628Z,16.10
2022-11-15T04:46:15.624Z,16.02
2022-11-15T04:49:01.330Z,16.35
2022-11-15T04:51:47.263Z,15.63
2022-11-15T04:54:33.265Z,17.70
2022-11-15T05:00:07.040Z,16.83
2022-11-15T05:03:11.901Z,16.05
2022-11-15T05:05:59.208Z,16.13
2022-11-15T05:08:45.347Z,16.90
2022-11-15T05:11:31.599Z,15.43
2022-11-15T05:14:17.870Z,14.32
2022-11-15T05:17:03.950Z,16.42
2022-11-15T05:22:35.555Z,16.50
2022-11-15T05:25:21.492Z,15.90
2022-11-15T05:28:07.310Z,14.95
2022-11-15T05:33:42.337Z,14.35
2022-11-15T05:36:30.677Z,14.40
2022-11-15T05:39:17.002Z,16.83
2022-11-15T05:42:17.097Z,17.60
2022-11-15T05:45:06.756Z,16.98
2022-11-15T05:47:54.788Z,18.35
2022-11-15T05:50:46.614Z,18.23
2022-11-15T05:53:40.968Z,18.80
2022-11-15T05:56:46.357Z,19.58
2022-11-15T05:59:34.212Z,20.60
2022-11-15T06:02:20.181Z,23.08
2022-11-15T06:05:06.411Z,22.50
2022-11-15T06:07:52.498Z,21.92
2022-11-15T06:13:24.385Z,22.05
2022-11-15T06:18:56.110Z,21.48
2022-11-15T06:21:42.055Z,22.35
2022-11-15T06:24:27.869Z,20.20
2022-11-15T06:27:13.756Z,20.75
2022-11-15T06:32:45.717Z,22.00
2022-11-15T06:35:34.801Z,23.38
2022-11-15T06:38:20.696Z,20.65
2022-11-15T06:43:53.914Z,21.08
2022-11-15T06:46:39.727Z,21.80
2022-11-15T06:49:25.600Z,22.15
2022-11-15T06:52:11.730Z,22.38
2022-11-15T06:54:57.530Z,22.33
2022-11-15T06:57:51.147Z,20.60
2022-11-15T07:00:37.216Z,19.52
2022-11-15T07:03:23.401Z,20.20
2022-11-15T07:06:10.661Z,19.77
2022-11-15T07:08:56.685Z,20.13
2022-11-15T07:11:42.501Z,20.42
2022-11-15T07:14:28.238Z,21.13
2022-11-15T07:17:14.183Z,20.13
2022-11-15T07:22:46.429Z,20.88
2022-11-15T07:25:32.757Z,22.48
2022-11-15T07:28:18.847Z,22.50
2022-11-15T07:31:07.051Z,21.42
2022-11-15T07:33:53.230Z,23.85
2022-11-15T07:36:39.120Z,24.33
2022-11-15T07:42:29.937Z,26.02
2022-11-15T07:45:15.936Z,26.75
2022-11-15T07:50:47.403Z,23.65
2022-11-15T07:53:34.179Z,21.77
2022-11-15T07:56:21.728Z,21.48
2022-11-15T07:59:07.643Z,19.42
2022-11-15T08:01:53.447Z,18.85
2022-11-15T08:04:39.693Z,19.40
2022-11-15T08:07:25.537Z,20.48
2022-11-15T08:10:12.974Z,19.13
2022-11-15T08:13:00.767Z,19.23
2022-11-15T08:15:46.633Z,19.33
2022-11-15T08:18:32.546Z,19.55
2022-11-15T08:24:06.582Z,18.23
2022-11-15T08:26:52.378Z,18.10
2022-11-15T08:29:38.230Z,18.40
2022-11-15T08:35:11.059Z,18.90
2022-11-15T08:37:57.218Z,20.17
2022-11-15T08:40:43.160Z,20.65
2022-11-15T08:43:29.574Z,20.55
2022-11-15T08:46:16.361Z,19.38
2022-11-15T08:49:02.493Z,20.83
2022-11-15T08:51:48.429Z,20.55
2022-11-15T08:54:34.344Z,21.08
2022-11-15T08:57:19.958Z,22.33
2022-11-15T09:00:06.258Z,20.40
2022-11-15T09:02:51.983Z,20.13
2022-11-15T09:05:38.887Z,20.20
2022-11-15T09:08:46.454Z,18.67
2022-11-15T09:11:32.079Z,18.67
2022-11-15T09:14:18.228Z,18.92
2022-11-15T09:17:04.922Z,18.00
2022-11-15T09:19:50.950Z,18.10
2022-11-15T09:22:37.552Z,18.63
2022-11-15T09:25:23.724Z,18.10
2022-11-15T09:28:10.031Z,18.63
2022-11-15T09:31:00.849Z,18.23
2022-11-15T09:33:47.076Z,19.35
2022-11-15T09:36:33.375Z,18.38
2022-11-15T09:39:19.224Z,18.45
2022-11-15T09:42:07.012Z,20.83
2022-11-15T09:45:12.105Z,20.45
2022-11-15T09:48:13.792Z,19.92
2022-11-15T09:51:05.985Z,19.57
2022-11-15T09:54:30.358Z,19.45
2022-11-15T09:56:37.691Z,19.65
2022-11-15T09:59:07.851Z,18.20
2022-11-15T10:01:45.933Z,19.45
2022-11-15T10:04:14.971Z,18.02
2022-11-15T10:07:07.725Z,18.17
2022-11-15T10:10:03.165Z,18.83
2022-11-15T10:12:32.319Z,18.48
2022-11-15T10:15:15.272Z,18.42
2022-11-15T10:17:42.646Z,18.63
2022-11-15T10:20:16.436Z,18.05
2022-11-15T10:22:52.463Z,18.52
2022-11-15T10:25:28.987Z,18.08
2022-11-15T10:28:02.383Z,18.13
2022-11-15T10:30:51.792Z,17.48
2022-11-15T10:33:34.887Z,18.20
2022-11-15T10:36:09.868Z,17.70
2022-11-15T10:38:49.493Z,17.08
2022-11-15T10:41:20.004Z,18.23
2022-11-15T10:44:02.651Z,17.50
2022-11-15T10:46:46.115Z,17.08
2022-11-15T10:49:15.334Z,17.52
2022-11-15T10:52:17.914Z,17.85
2022-11-15T10:54:49.795Z,17.90
2022-11-15T10:57:20.197Z,19.48
2022-11-15T10:59:50.720Z,19.50
2022-11-15T11:02:38.307Z,19.02
2022-11-15T11:05:26.853Z,19.48
2022-11-15T11:08:23.129Z,18.92
2022-11-15T11:11:03.423Z,18.02
2022-11-15T11:13:35.567Z,18.83
2022-11-15T11:16:15.184Z,19.20
2022-11-15T11:19:10.431Z,18.85
2022-11-15T11:21:40.109Z,19.42
2022-11-15T11:24:15.924Z,18.88
2022-11-15T11:29:32.900Z,18.15
2022-11-15T11:32:17.868Z,17.90
2022-11-15T11:34:51.852Z,17.98
2022-11-15T11:37:28.653Z,18.33
2022-11-15T11:40:21.909Z,19.38
2022-11-15T11:42:59.942Z,18.48
2022-11-15T11:46:08.883Z,18.83
2022-11-15T11:48:51.279Z,17.33
2022-11-15T11:51:29.720Z,17.88
2022-11-15T11:54:22.048Z,16.40
2022-11-15T11:56:51.128Z,16.67
2022-11-15T11:59:29.716Z,16.83
2022-11-15T12:01:59.929Z,15.90
2022-11-15T12:04:41.157Z,17.33
2022-11-15T12:07:20.334Z,16.13
2022-11-15T12:09:52.802Z,16.17
2022-11-15T12:12:31.123Z,16.88
2022-11-15T12:15:20.506Z,15.75
2022-11-15T12:17:49.297Z,16.40
2022-11-15T12:20:23.899Z,15.88
2022-11-15T12:23:04.700Z,16.43
2022-11-15T12:25:58.559Z,16.63
2022-11-15T12:28:33.506Z,16.42
2022-11-15T12:31:17.408Z,15.98
2022-11-15T12:33:47.735Z,16.58
2022-11-15T12:36:24.004Z,17.17
2022-11-15T12:39:01.548Z,15.82
2022-11-15T12:41:31.264Z,15.88
2022-11-15T12:44:00.215Z,16.48
2022-11-15T12:46:30.360Z,16.90
2022-11-15T12:49:22.279Z,16.42
2022-11-15T12:51:49.677Z,16.63
2022-11-15T12:54:23.159Z,18.40
2022-11-15T12:57:08.398Z,18.17
2022-11-15T13:00:05.222Z,16.67
2022-11-15T13:02:36.816Z,18.08
2022-11-15T13:05:16.528Z,17.50
2022-11-15T13:07:43.918Z,17.88
2022-11-15T13:10:11.418Z,17.17
2022-11-15T13:12:41.545Z,18.25
2022-11-15T13:15:15.042Z,18.35
2022-11-15T13:17:48.863Z,17.40
2022-11-15T13:20:16.261Z,17.48
2022-11-15T13:22:52.411Z,18.63
2022-11-15T13:26:02.203Z,17.83
2022-11-15T13:28:47.190Z,17.10
2022-11-15T13:31:26.878Z,17.95
2022-11-15T13:33:58.248Z,16.73
2022-11-15T13:36:34.128Z,17.45
2022-11-15T13:39:07.713Z,17.15
2022-11-15T13:41:37.338Z,17.05
2022-11-15T13:44:05.382Z,17.02
2022-11-15T13:46:34.120Z,16.92
2022-11-15T13:49:28.377Z,16.88
2022-11-15T13:51:55.998Z,16.92
2022-11-15T13:54:25.977Z,18.55
2022-11-15T13:57:21.953Z,18.60
2022-11-15T13:59:55.785Z,17.30
2022-11-15T14:02:35.228Z,16.88
2022-11-15T14:05:17.228Z,17.20
2022-11-15T14:08:03.581Z,16.45
2022-11-15T14:10:37.233Z,16.17
2022-11-15T14:13:11.401Z,15.93
2022-11-15T14:15:40.895Z,16.65
2022-11-15T14:19:00.580Z,15.95
2022-11-15T14:21:28.131Z,15.60
2022-11-15T14:24:18.979Z,15.18
2022-11-15T14:26:46.824Z,15.07
2022-11-15T14:29:27.523Z,15.20
2022-11-15T14:32:07.905Z,16.63
2022-11-15T14:34:35.337Z,16.20
2022-11-15T14:37:02.718Z,16.95
2022-11-15T14:39:30.155Z,16.30
2022-11-15T14:41:57.519Z,17.80
2022-11-15T14:44:25.051Z,18.10
2022-11-15T14:46:52.552Z,18.42
2022-11-15T14:49:20.017Z,20.73
2022-11-15T14:51:47.528Z,23.13
2022-11-15T14:54:15.061Z,18.20
2022-11-15T14:56:43.656Z,18.05
2022-11-15T14:59:11.073Z,17.23
2022-11-15T15:01:38.601Z,18.23
2022-11-15T15:04:06.107Z,17.23
2022-11-15T15:06:33.587Z,17.50
2022-11-15T15:09:01.012Z,17.35
2022-11-15T15:11:30.978Z,17.55
2022-11-15T15:14:01.971Z,17.45
2022-11-15T15:16:29.416Z,19.60
2022-11-15T15:18:56.918Z,17.98
2022-11-15T15:21:28.889Z,19.50
2022-11-15T15:23:59.974Z,19.52
2022-11-15T15:26:27.559Z,18.48
2022-11-15T15:28:55.172Z,19.23
2022-11-15T15:31:22.751Z,18.55
2022-11-15T15:33:50.237Z,18.73
2022-11-15T15:36:19.727Z,17.75
2022-11-15T15:38:47.871Z,19.20
2022-11-15T15:41:16.903Z,19.30
2022-11-15T15:43:48.863Z,19.17
2022-11-15T15:46:18.306Z,19.45
2022-11-15T15:48:46.806Z,19.70
2022-11-15T15:51:20.193Z,18.55
2022-11-15T15:53:51.416Z,18.65
2022-11-15T15:56:19.055Z,18.77
2022-11-15T15:58:56.522Z,18.85
2022-11-15T16:01:26.627Z,18.98
2022-11-15T16:03:59.341Z,18.55
2022-11-15T16:06:41.533Z,19.35
2022-11-15T16:09:54.719Z,19.45
2022-11-15T16:12:30.695Z,20.05
2022-11-15T16:14:58.962Z,20.02
2022-11-15T16:17:33.910Z,19.80
2022-11-15T16:20:17.751Z,19.42
2022-11-15T16:23:08.764Z,20.13
2022-11-15T16:25:55.748Z,22.77
2022-11-15T16:28:31.361Z,25.52
2022-11-15T16:31:10.115Z,24.00
2022-11-15T16:33:41.222Z,24.27
2022-11-15T16:36:36.023Z,23.02
2022-11-15T16:39:06.696Z,23.27
2022-11-15T16:41:34.170Z,23.33
2022-11-15T16:44:03.001Z,22.15
2022-11-15T16:46:30.665Z,20.50
2022-11-15T16:48:59.372Z,20.80
2022-11-15T16:51:30.058Z,19.70
2022-11-15T16:53:57.949Z,20.33
2022-11-15T16:56:30.746Z,19.77
2022-11-15T16:59:02.015Z,19.27
2022-11-15T17:01:46.977Z,18.73
2022-11-15T17:04:16.493Z,19.63
2022-11-15T17:06:47.411Z,18.60
2022-11-15T17:09:25.528Z,20.30
2022-11-15T17:12:01.795Z,20.30
2022-11-15T17:14:29.972Z,19.65
2022-11-15T17:17:09.991Z,19.35
2022-11-15T17:19:37.784Z,19.65
2022-11-15T17:22:19.664Z,19.23
2022-11-15T17:24:53.506Z,20.27
2022-11-15T17:27:29.360Z,18.35
2022-11-15T17:29:57.082Z,19.40
2022-11-15T17:33:07.224Z,17.55
2022-11-15T17:36:00.812Z,18.83
2022-11-15T17:38:32.844Z,19.10
2022-11-15T17:41:16.321Z,18.95
2022-11-15T17:43:44.689Z,18.45
2022-11-15T17:46:20.516Z,18.92
2022-11-15T17:49:01.075Z,18.63
2022-11-15T17:51:44.983Z,18.38
2022-11-15T17:54:31.638Z,18.42
2022-11-15T17:57:04.112Z,19.30
2022-11-15T17:59:41.788Z,19.73
2022-11-15T18:02:21.787Z,20.33
2022-11-15T18:05:00.902Z,20.70
2022-11-15T18:07:59.071Z,22.13
2022-11-15T18:10:33.324Z,23.55
2022-11-15T18:13:01.191Z,22.83
2022-11-15T18:15:34.900Z,22.27
2022-11-15T18:18:05.193Z,22.52
2022-11-15T18:21:04.882Z,23.70
2022-11-15T18:23:45.913Z,24.48
2022-11-15T18:26:15.531Z,24.63
2022-11-15T18:28:45.662Z,25.42
2022-11-15T18:31:14.958Z,25.85
2022-11-15T18:33:43.258Z,27.15
2022-11-15T18:36:13.545Z,29.17
2022-11-15T18:38:41.417Z,27.45
2022-11-15T18:41:18.053Z,28.35
2022-11-15T18:43:45.586Z,30.17
2022-11-15T18:46:15.724Z,30.73
2022-11-15T18:48:44.944Z,29.05
2022-11-15T18:51:15.110Z,28.40
2022-11-15T18:53:44.023Z,26.63
2022-11-15T18:56:14.288Z,27.13
2022-11-15T18:58:44.509Z,26.90
2022-11-15T19:01:17.079Z,25.02
2022-11-15T19:03:46.823Z,24.58
2022-11-15T19:06:16.596Z,24.05
2022-11-15T19:08:46.186Z,24.10
2022-11-15T19:11:16.903Z,23.33
2022-11-15T19:13:48.561Z,21.92
2022-11-15T19:16:18.633Z,23.05
2022-11-15T19:18:46.207Z,21.63
2022-11-15T19:21:16.177Z,21.83
2022-11-15T19:23:43.886Z,21.58
2022-11-15T19:26:14.208Z,22.10
2022-11-15T19:28:43.398Z,21.38
2022-11-15T19:31:15.665Z,21.95
2022-11-15T19:33:45.173Z,22.77
2022-11-15T19:36:16.138Z,22.55
2022-11-15T19:38:44.137Z,23.23
2022-11-15T19:41:14.725Z,23.85
2022-11-15T19:43:42.974Z,22.17
2022-11-15T19:46:12.498Z,23.05
2022-11-15T19:48:40.328Z,23.30
2022-11-15T19:51:14.442Z,22.63
2022-11-15T19:53:42.811Z,23.55
2022-11-15T19:56:13.056Z,21.92
2022-11-15T19:58:41.509Z,22.85
2022-11-15T20:01:29.217Z,22.38
2022-11-15T20:04:00.114Z,22.92
2022-11-15T20:06:33.599Z,23.08
2022-11-15T20:09:01.470Z,24.48
2022-11-15T20:11:29.487Z,22.23
2022-11-15T20:14:02.342Z,22.52
2022-11-15T20:16:30.372Z,23.33
2022-11-15T20:18:59.758Z,23.15
2022-11-15T20:21:28.427Z,21.23
2022-11-15T20:23:56.641Z,23.15
2022-11-15T20:26:24.683Z,23.23
2022-11-15T20:28:53.247Z,22.67
2022-11-15T20:31:21.883Z,23.85
2022-11-15T20:33:49.726Z,23.35
2022-11-15T20:36:18.082Z,22.92
2022-11-15T20:38:51.104Z,24.10
2022-11-15T20:41:19.413Z,23.20
2022-11-15T20:43:48.231Z,23.08
2022-11-15T20:46:16.924Z,22.52
2022-11-15T20:48:45.789Z,23.38
2022-11-15T20:51:17.167Z,22.75
2022-11-15T20:53:47.785Z,21.77
2022-11-15T20:56:22.529Z,23.30
2022-11-15T20:58:51.653Z,23.88
2022-11-15T21:01:25.726Z,22.75
2022-11-15T21:03:57.958Z,22.83
2022-11-15T21:06:27.851Z,22.52
2022-11-15T21:09:15.763Z,22.10
2022-11-15T21:12:04.254Z,21.33
2022-11-15T21:14:33.204Z,22.08
2022-11-15T21:17:00.993Z,22.05
2022-11-15T21:19:35.671Z,21.95
2022-11-15T21:22:06.415Z,24.95
2022-11-15T21:24:34.855Z,24.60
2022-11-15T21:27:02.786Z,22.98
2022-11-15T21:29:37.920Z,22.45
2022-11-15T21:32:07.823Z,24.63
2022-11-15T21:34:36.254Z,25.73
2022-11-15T21:37:05.145Z,25.42
2022-11-15T21:39:33.097Z,22.40
2022-11-15T21:42:00.780Z,22.90
2022-11-15T21:44:28.728Z,21.65
2022-11-15T21:46:56.389Z,21.90
2022-11-15T21:49:24.241Z,24.27
2022-11-15T21:51:51.815Z,21.83
2022-11-15T21:54:19.375Z,23.60
2022-11-15T21:56:46.923Z,23.55
2022-11-15T21:59:15.671Z,22.08
2022-11-15T22:02:05.707Z,21.67
2022-11-15T22:04:35.970Z,33.22
2022-11-15T22:07:03.805Z,45.05
2022-11-15T22:09:31.549Z,47.15
2022-11-15T22:11:59.148Z,37.58
2022-11-15T22:14:27.550Z,23.90
2022-11-15T22:16:57.583Z,21.27
2022-11-15T22:19:25.298Z,19.55
2022-11-15T22:21:52.979Z,19.15
2022-11-15T22:24:21.669Z,17.52
2022-11-15T22:26:49.311Z,18.77
2022-11-15T22:29:16.922Z,18.85
2022-11-15T22:31:44.628Z,15.82
2022-11-15T22:34:12.324Z,16.23
2022-11-15T22:37:13.182Z,15.27
2022-11-15T22:39:35.881Z,15.52
2022-11-15T22:42:03.576Z,14.80
2022-11-15T22:44:31.234Z,14.95
2022-11-15T22:46:59.085Z,15.18
2022-11-15T22:49:26.827Z,15.40
2022-11-15T22:51:54.695Z,15.70
2022-11-15T22:54:22.486Z,16.88
2022-11-15T22:56:50.284Z,15.73
2022-11-15T22:59:17.915Z,16.95
2022-11-15T23:01:45.791Z,17.08
2022-11-15T23:04:13.459Z,17.63
2022-11-15T23:06:41.344Z,15.82
2022-11-15T23:09:10.105Z,15.90
2022-11-15T23:11:56.440Z,16.77
2022-11-15T23:14:24.405Z,16.00
2022-11-15T23:16:52.079Z,15.63
2022-11-15T23:19:19.769Z,14.80
2022-11-15T23:22:07.104Z,14.95
2022-11-15T23:24:34.973Z,15.07
2022-11-15T23:27:07.282Z,14.60
2022-11-15T23:29:55.287Z,15.77
2022-11-15T23:32:41.776Z,14.13
2022-11-15T23:35:09.791Z,14.68
2022-11-15T23:37:37.432Z,15.98
2022-11-15T23:40:05.727Z,15.10
2022-11-15T23:42:33.451Z,15.20
2022-11-15T23:45:01.115Z,15.57
2022-11-15T23:47:31.058Z,14.40
2022-11-15T23:49:58.704Z,14.77
2022-11-15T23:52:27.412Z,14.57
2022-11-15T23:54:55.377Z,14.68
2022-11-15T23:57:23.345Z,13.77
2022-11-15T23:59:51.192Z,14.63
